createdAt,value
2022-12-17T00:02:12.134Z,16.43
2022-12-17T00:04:32.890Z,16.67
2022-12-17T00:06:56.582Z,17.20
2022-12-17T00:09:20.021Z,16.57
2022-12-17T00:11:40.540Z,17.03
2022-12-17T00:14:04.043Z,17.17
2022-12-17T00:16:25.186Z,15.80
2022-12-17T00:18:45.180Z,16.37
2022-12-17T00:21:17.196Z,15.53
2022-12-17T00:23:39.728Z,16.30
2022-12-17T00:26:00.180Z,17.23
2022-12-17T00:28:20.487Z,16.90
2022-12-17T00:30:40.826Z,15.53
2022-12-17T00:33:01.241Z,14.90
2022-12-17T00:35:21.937Z,16.00
2022-12-17T00:37:45.282Z,16.23
2022-12-17T00:40:05.457Z,14.40
2022-12-17T00:42:25.690Z,15.33
2022-12-17T00:44:46.104Z,16.40
2022-12-17T00:47:07.910Z,15.30
2022-12-17T00:49:27.935Z,14.90
2022-12-17T00:51:49.498Z,14.93
2022-12-17T00:54:09.851Z,14.53
2022-12-17T00:56:30.254Z,14.80
2022-12-17T00:58:50.788Z,14.03
2022-12-17T01:01:20.467Z,14.73
2022-12-17T01:03:40.850Z,15.03
2022-12-17T01:06:01.297Z,14.13
2022-12-17T01:08:26.745Z,15.00
2022-12-17T01:10:47.112Z,14.37
2022-12-17T01:13:07.499Z,14.37
2022-12-17T01:15:28.115Z,14.43
2022-12-17T01:17:48.490Z,14.57
2022-12-17T01:20:08.930Z,14.27
2022-12-17T01:22:29.169Z,14.37
2022-12-17T01:24:52.419Z,14.27
2022-12-17T01:27:12.847Z,14.30
2022-12-17T01:29:33.149Z,14.13
2022-12-17T01:31:53.329Z,14.43
2022-12-17T01:34:13.578Z,14.13
2022-12-17T01:36:33.776Z,14.27
2022-12-17T01:38:54.078Z,13.10
2022-12-17T01:41:16.503Z,13.33
2022-12-17T01:43:54.244Z,14.70
2022-12-17T01:46:14.351Z,13.47
2022-12-17T01:48:36.493Z,12.53
2022-12-17T01:51:00.813Z,13.73
2022-12-17T01:53:24.093Z,12.50
2022-12-17T01:55:44.156Z,14.03
2022-12-17T01:58:05.345Z,13.10
2022-12-17T02:00:28.546Z,13.60
2022-12-17T02:02:52.601Z,12.63
2022-12-17T02:05:15.804Z,12.57
2022-12-17T02:07:52.977Z,13.73
2022-12-17T02:10:32.377Z,12.77
2022-12-17T02:13:01.032Z,12.67
2022-12-17T02:15:36.184Z,13.23
2022-12-17T02:18:01.979Z,13.03
2022-12-17T02:20:38.224Z,12.23
2022-12-17T02:23:26.975Z,12.77
2022-12-17T02:25:58.571Z,12.60
2022-12-17T02:28:20.244Z,12.20
2022-12-17T02:30:40.614Z,13.00
2022-12-17T02:33:08.711Z,12.80
2022-12-17T02:35:41.259Z,12.00
2022-12-17T02:38:26.213Z,11.57
2022-12-17T02:40:46.954Z,11.53
2022-12-17T02:43:07.981Z,12.07
2022-12-17T02:45:34.666Z,12.40
2022-12-17T02:47:58.252Z,13.13
2022-12-17T02:50:18.407Z,11.83
2022-12-17T02:52:40.253Z,12.23
2022-12-17T02:55:00.322Z,12.03
2022-12-17T02:57:21.731Z,11.57
2022-12-17T02:59:43.190Z,12.33
2022-12-17T03:02:08.940Z,11.33
2022-12-17T03:04:29.458Z,11.40
2022-12-17T03:06:49.559Z,11.33
2022-12-17T03:09:09.844Z,11.37
2022-12-17T03:11:30.260Z,11.83
2022-12-17T03:13:50.692Z,12.13
2022-12-17T03:16:10.748Z,11.47
2022-12-17T03:18:34.204Z,12.47
2022-12-17T03:20:57.230Z,11.47
2022-12-17T03:23:28.323Z,12.23
2022-12-17T03:25:49.422Z,11.97
2022-12-17T03:28:09.619Z,11.53
2022-12-17T03:30:34.556Z,11.70
2022-12-17T03:32:57.582Z,10.57
2022-12-17T03:35:17.927Z,11.37
2022-12-17T03:37:38.486Z,12.07
2022-12-17T03:39:58.749Z,11.40
2022-12-17T03:42:19.965Z,10.70
2022-12-17T03:44:40.494Z,11.27
2022-12-17T03:47:00.782Z,11.90
2022-12-17T03:49:21.343Z,11.57
2022-12-17T03:51:42.726Z,11.03
2022-12-17T03:54:04.581Z,10.60
2022-12-17T03:56:24.871Z,11.07
2022-12-17T03:58:45.228Z,10.87
2022-12-17T04:01:12.353Z,11.73
2022-12-17T04:03:33.377Z,11.77
2022-12-17T04:05:54.196Z,11.83
2022-12-17T04:08:14.207Z,11.60
2022-12-17T04:10:34.758Z,11.93
2022-12-17T04:12:54.759Z,10.77
2022-12-17T04:15:15.082Z,11.40
2022-12-17T04:17:35.338Z,11.30
2022-12-17T04:19:57.607Z,12.33
2022-12-17T04:22:19.126Z,11.37
2022-12-17T04:24:39.095Z,10.77
2022-12-17T04:26:59.555Z,11.40
2022-12-17T04:29:19.950Z,11.40
2022-12-17T04:31:40.247Z,10.57
2022-12-17T04:34:00.392Z,11.87
2022-12-17T04:36:23.774Z,11.50
2022-12-17T04:38:51.951Z,12.13
2022-12-17T04:41:19.640Z,11.97
2022-12-17T04:43:41.748Z,11.70
2022-12-17T04:46:02.195Z,12.27
2022-12-17T04:48:24.928Z,11.77
2022-12-17T04:50:45.229Z,11.23
2022-12-17T04:53:08.347Z,10.60
2022-12-17T04:55:28.510Z,11.27
2022-12-17T04:57:48.707Z,10.87
2022-12-17T05:00:11.924Z,10.33
2022-12-17T05:02:32.036Z,11.23
2022-12-17T05:04:52.283Z,11.47
2022-12-17T05:07:12.716Z,11.10
2022-12-17T05:09:33.234Z,10.80
2022-12-17T05:11:53.518Z,11.53
2022-12-17T05:14:13.790Z,12.33
2022-12-17T05:16:34.145Z,13.07
2022-12-17T05:18:54.399Z,12.37
2022-12-17T05:21:16.931Z,11.57
2022-12-17T05:23:37.562Z,11.70
2022-12-17T05:25:58.165Z,12.17
2022-12-17T05:28:18.190Z,11.97
2022-12-17T05:30:38.603Z,11.90
2022-12-17T05:32:59.119Z,12.33
2022-12-17T05:35:19.381Z,12.10
2022-12-17T05:37:44.470Z,12.23
2022-12-17T05:40:09.234Z,12.93
2022-12-17T05:42:32.324Z,12.80
2022-12-17T05:44:52.525Z,11.70
2022-12-17T05:47:12.748Z,11.40
2022-12-17T05:49:32.999Z,11.53
2022-12-17T05:51:53.315Z,12.27
2022-12-17T05:54:13.577Z,11.10
2022-12-17T05:56:33.738Z,12.13
2022-12-17T05:58:57.343Z,11.80
2022-12-17T06:01:20.006Z,11.93
2022-12-17T06:03:40.913Z,12.03
2022-12-17T06:06:01.688Z,13.27
2022-12-17T06:08:24.063Z,11.73
2022-12-17T06:10:45.112Z,12.63
2022-12-17T06:13:16.898Z,12.60
2022-12-17T06:15:37.323Z,13.07
2022-12-17T06:17:57.253Z,11.90
2022-12-17T06:20:17.650Z,11.07
2022-12-17T06:22:37.774Z,11.40
2022-12-17T06:24:57.785Z,12.03
2022-12-17T06:27:18.256Z,12.17
2022-12-17T06:29:43.058Z,11.50
2022-12-17T06:32:05.920Z,10.90
2022-12-17T06:34:26.195Z,11.87
2022-12-17T06:36:46.494Z,11.40
2022-12-17T06:39:06.796Z,11.17
2022-12-17T06:41:27.483Z,10.77
2022-12-17T06:43:47.767Z,11.97
2022-12-17T06:46:10.729Z,11.33
2022-12-17T06:48:30.920Z,10.93
2022-12-17T06:50:50.840Z,12.67
2022-12-17T06:53:18.664Z,11.43
2022-12-17T06:55:38.928Z,10.83
2022-12-17T06:57:59.285Z,12.47
2022-12-17T07:00:23.213Z,11.13
2022-12-17T07:02:43.734Z,10.67
2022-12-17T07:05:13.117Z,11.53
2022-12-17T07:07:36.637Z,11.73
2022-12-17T07:09:57.165Z,12.17
2022-12-17T07:12:17.714Z,12.43
2022-12-17T07:14:37.955Z,12.13
2022-12-17T07:16:58.009Z,13.50
2022-12-17T07:19:21.395Z,12.37
2022-12-17T07:21:44.100Z,12.43
2022-12-17T07:24:04.299Z,11.73
2022-12-17T07:26:24.630Z,12.47
2022-12-17T07:28:44.881Z,12.80
2022-12-17T07:31:05.269Z,12.73
2022-12-17T07:33:26.419Z,12.63
2022-12-17T07:35:46.904Z,13.20
2022-12-17T07:38:07.256Z,11.20
2022-12-17T07:40:30.764Z,11.37
2022-12-17T07:42:50.907Z,12.93
2022-12-17T07:45:10.730Z,11.97
2022-12-17T07:47:31.346Z,12.30
2022-12-17T07:49:55.184Z,12.80
2022-12-17T07:52:15.805Z,12.07
2022-12-17T07:54:36.038Z,13.53
2022-12-17T07:56:56.349Z,13.70
2022-12-17T07:59:16.990Z,13.17
2022-12-17T08:01:37.192Z,14.43
2022-12-17T08:04:03.333Z,12.73
2022-12-17T08:06:23.842Z,13.23
2022-12-17T08:08:44.129Z,13.53
2022-12-17T08:11:14.557Z,12.90
2022-12-17T08:13:35.578Z,12.97
2022-12-17T08:15:59.513Z,12.97
2022-12-17T08:18:26.670Z,13.53
2022-12-17T08:20:47.242Z,14.70
2022-12-17T08:23:07.577Z,15.97
2022-12-17T08:25:28.585Z,16.73
2022-12-17T08:27:49.287Z,18.53
2022-12-17T08:30:09.643Z,19.40
2022-12-17T08:32:30.581Z,18.17
2022-12-17T08:34:53.414Z,18.17
2022-12-17T08:37:13.619Z,18.77
2022-12-17T08:39:34.077Z,18.20
2022-12-17T08:41:56.605Z,18.00
2022-12-17T08:44:18.814Z,17.37
2022-12-17T08:46:40.563Z,18.43
2022-12-17T08:49:00.861Z,20.53
2022-12-17T08:51:20.984Z,18.43
2022-12-17T08:53:41.822Z,18.00
2022-12-17T08:56:02.168Z,17.07
2022-12-17T08:58:22.732Z,15.97
2022-12-17T09:00:45.168Z,16.53
2022-12-17T09:03:06.661Z,15.17
2022-12-17T09:05:27.911Z,15.33
2022-12-17T09:07:48.383Z,15.67
2022-12-17T09:10:08.769Z,15.13
2022-12-17T09:12:29.488Z,14.33
2022-12-17T09:14:49.927Z,15.80
2022-12-17T09:17:10.520Z,14.60
2022-12-17T09:19:31.184Z,15.53
2022-12-17T09:22:03.738Z,15.97
2022-12-17T09:24:24.236Z,15.47
2022-12-17T09:26:44.133Z,15.47
2022-12-17T09:29:04.597Z,15.70
2022-12-17T09:31:24.875Z,14.97
2022-12-17T09:33:45.124Z,15.10
2022-12-17T09:36:07.944Z,16.13
2022-12-17T09:38:31.471Z,15.57
2022-12-17T09:40:51.722Z,14.73
2022-12-17T09:43:21.028Z,14.93
2022-12-17T09:45:49.206Z,15.47
2022-12-17T09:48:32.626Z,15.67
2022-12-17T09:50:53.215Z,14.87
2022-12-17T09:53:13.344Z,16.53
2022-12-17T09:55:44.318Z,15.17
2022-12-17T09:58:07.555Z,16.13
2022-12-17T10:00:41.352Z,15.53
2022-12-17T10:03:02.361Z,15.37
2022-12-17T10:05:26.101Z,15.83
2022-12-17T10:07:56.084Z,15.80
2022-12-17T10:10:26.258Z,15.13
2022-12-17T10:12:46.547Z,16.10
2022-12-17T10:15:06.786Z,15.27
2022-12-17T10:17:40.967Z,14.60
2022-12-17T10:20:09.433Z,15.83
2022-12-17T10:22:36.846Z,16.43
2022-12-17T10:25:03.780Z,15.77
2022-12-17T10:27:29.050Z,15.13
2022-12-17T10:29:50.558Z,15.93
2022-12-17T10:32:17.625Z,16.07
2022-12-17T10:34:41.804Z,14.43
2022-12-17T10:37:08.245Z,14.87
2022-12-17T10:39:41.949Z,15.07
2022-12-17T10:42:02.450Z,14.57
2022-12-17T10:44:48.204Z,13.97
2022-12-17T10:47:15.406Z,14.63
2022-12-17T10:49:43.646Z,14.83
2022-12-17T10:52:11.129Z,15.27
2022-12-17T10:54:50.025Z,15.30
2022-12-17T10:57:16.353Z,16.23
2022-12-17T10:59:57.633Z,14.27
2022-12-17T11:02:18.424Z,14.17
2022-12-17T11:04:46.358Z,15.20
2022-12-17T11:07:10.566Z,14.43
2022-12-17T11:09:55.274Z,14.83
2022-12-17T11:12:15.654Z,14.03
2022-12-17T11:14:36.127Z,15.23
2022-12-17T11:17:08.134Z,14.47
2022-12-17T11:19:28.416Z,14.17
2022-12-17T11:22:12.752Z,15.17
2022-12-17T11:24:46.400Z,14.73
2022-12-17T11:27:10.885Z,15.90
2022-12-17T11:29:32.966Z,16.17
2022-12-17T11:32:14.566Z,16.03
2022-12-17T11:34:50.114Z,15.70
2022-12-17T11:37:22.393Z,15.47
2022-12-17T11:39:55.407Z,16.67
2022-12-17T11:42:46.322Z,17.03
2022-12-17T11:45:25.351Z,15.27
2022-12-17T11:48:07.198Z,16.43
2022-12-17T11:50:48.086Z,16.13
2022-12-17T11:53:28.237Z,16.10
2022-12-17T11:56:19.909Z,15.90
2022-12-17T11:58:52.174Z,15.50
2022-12-17T12:01:30.740Z,16.83
2022-12-17T12:04:17.289Z,16.43
2022-12-17T12:07:07.037Z,16.43
2022-12-17T12:09:35.976Z,16.83
2022-12-17T12:12:11.717Z,16.97
2022-12-17T12:14:46.294Z,17.03
2022-12-17T12:17:25.526Z,16.90
2022-12-17T12:20:29.003Z,17.27
2022-12-17T12:23:20.183Z,17.53
2022-12-17T12:25:43.609Z,15.97
2022-12-17T12:28:25.136Z,16.80
2022-12-17T12:30:59.570Z,17.80
2022-12-17T12:33:44.954Z,17.53
2022-12-17T12:36:05.943Z,17.77
2022-12-17T12:38:39.484Z,17.97
2022-12-17T12:41:13.640Z,17.73
2022-12-17T12:43:45.502Z,17.50
2022-12-17T12:46:27.898Z,16.90
2022-12-17T12:49:03.650Z,17.63
2022-12-17T12:51:45.879Z,16.90
2022-12-17T12:54:20.538Z,18.03
2022-12-17T12:56:52.787Z,17.67
2022-12-17T12:59:14.833Z,16.93
2022-12-17T13:01:35.888Z,17.83
2022-12-17T13:04:02.311Z,17.90
2022-12-17T13:06:04.535Z,17.37
2022-12-17T13:08:23.104Z,17.23
2022-12-17T13:10:30.140Z,18.07
2022-12-17T13:12:45.383Z,17.73
2022-12-17T13:15:09.774Z,17.27
2022-12-17T13:17:17.306Z,18.50
2022-12-17T13:19:35.690Z,18.57
2022-12-17T13:21:37.489Z,18.93
2022-12-17T13:23:43.358Z,17.77
2022-12-17T13:25:45.019Z,18.33
2022-12-17T13:27:47.144Z,17.30
2022-12-17T13:29:54.488Z,17.80
2022-12-17T13:32:03.301Z,18.37
2022-12-17T13:34:25.923Z,18.33
2022-12-17T13:36:34.780Z,17.57
2022-12-17T13:38:57.013Z,19.10
2022-12-17T13:41:10.516Z,18.73
2022-12-17T13:43:18.987Z,18.30
2022-12-17T13:45:29.074Z,19.33
2022-12-17T13:47:35.567Z,19.17
2022-12-17T13:49:40.424Z,18.93
2022-12-17T13:51:45.089Z,18.13
2022-12-17T13:53:58.342Z,17.07
2022-12-17T13:56:03.491Z,18.93
2022-12-17T13:58:08.190Z,18.60
2022-12-17T14:00:23.772Z,18.70
2022-12-17T14:02:28.959Z,19.13
2022-12-17T14:04:33.958Z,19.97
2022-12-17T14:06:38.291Z,20.43
2022-12-17T14:08:43.223Z,19.67
2022-12-17T14:10:52.483Z,19.80
2022-12-17T14:13:08.062Z,19.67
2022-12-17T14:15:24.393Z,20.20
2022-12-17T14:17:37.639Z,17.67
2022-12-17T14:19:39.942Z,19.77
2022-12-17T14:21:45.761Z,18.77
2022-12-17T14:23:50.573Z,19.67
2022-12-17T14:25:53.162Z,19.80
2022-12-17T14:28:00.964Z,19.63
2022-12-17T14:30:20.354Z,20.37
2022-12-17T14:32:32.254Z,20.03
2022-12-17T14:34:43.764Z,19.93
2022-12-17T14:36:57.086Z,19.67
2022-12-17T14:39:01.492Z,19.20
2022-12-17T14:41:29.843Z,18.67
2022-12-17T14:43:34.371Z,19.97
2022-12-17T14:45:56.109Z,19.97
2022-12-17T14:48:00.198Z,19.43
2022-12-17T14:50:14.029Z,19.37
2022-12-17T14:52:31.332Z,19.63
2022-12-17T14:54:33.383Z,20.83
2022-12-17T14:56:34.896Z,20.30
2022-12-17T14:58:45.617Z,20.60
2022-12-17T15:00:59.767Z,18.90
2022-12-17T15:03:01.610Z,19.17
2022-12-17T15:05:03.831Z,19.40
2022-12-17T15:07:10.979Z,19.40
2022-12-17T15:09:16.572Z,18.33
2022-12-17T15:11:20.934Z,17.93
2022-12-17T15:13:22.669Z,18.33
2022-12-17T15:15:24.374Z,18.33
2022-12-17T15:17:28.944Z,17.30
2022-12-17T15:19:31.042Z,17.70
2022-12-17T15:21:32.811Z,16.23
2022-12-17T15:23:41.087Z,17.80
2022-12-17T15:25:46.664Z,16.43
2022-12-17T15:27:48.672Z,16.80
2022-12-17T15:29:50.393Z,16.47
2022-12-17T15:31:51.952Z,16.73
2022-12-17T15:33:56.558Z,16.63
2022-12-17T15:35:59.280Z,17.13
2022-12-17T15:38:01.101Z,17.07
2022-12-17T15:40:06.207Z,16.70
2022-12-17T15:42:29.034Z,16.93
2022-12-17T15:44:30.651Z,17.37
2022-12-17T15:46:35.105Z,17.20
2022-12-17T15:48:37.038Z,16.50
2022-12-17T15:50:39.688Z,16.00
2022-12-17T15:52:41.476Z,17.60
2022-12-17T15:54:43.143Z,16.60
2022-12-17T15:56:52.604Z,17.67
2022-12-17T15:58:58.839Z,17.03
2022-12-17T16:01:00.759Z,17.43
2022-12-17T16:03:02.444Z,16.03
2022-12-17T16:05:04.617Z,17.07
2022-12-17T16:07:06.128Z,17.23
2022-12-17T16:09:07.992Z,16.67
2022-12-17T16:11:11.856Z,16.30
2022-12-17T16:13:13.523Z,16.77
2022-12-17T16:15:15.962Z,15.93
2022-12-17T16:17:17.641Z,15.17
2022-12-17T16:19:22.442Z,16.60
2022-12-17T16:21:24.120Z,16.13
2022-12-17T16:23:25.660Z,16.53
2022-12-17T16:25:27.642Z,16.43
2022-12-17T16:27:29.446Z,16.13
2022-12-17T16:29:31.105Z,15.77
2022-12-17T16:31:33.463Z,14.97
2022-12-17T16:33:37.872Z,17.40
2022-12-17T16:35:39.575Z,16.17
2022-12-17T16:37:41.215Z,15.43
2022-12-17T16:39:58.266Z,14.70
2022-12-17T16:42:02.023Z,15.50
2022-12-17T16:44:04.911Z,15.17
2022-12-17T16:46:24.765Z,16.03
2022-12-17T16:48:26.442Z,15.73
2022-12-17T16:50:33.477Z,15.60
2022-12-17T16:52:35.365Z,14.57
2022-12-17T16:54:37.098Z,15.70
2022-12-17T16:56:40.862Z,17.47
2022-12-17T16:58:42.908Z,19.23
2022-12-17T17:00:46.471Z,16.17
2022-12-17T17:02:53.083Z,17.93
2022-12-17T17:04:55.161Z,16.67
2022-12-17T17:06:57.749Z,16.43
2022-12-17T17:08:59.418Z,16.97
2022-12-17T17:11:11.023Z,16.83
2022-12-17T17:13:13.065Z,15.50
2022-12-17T17:15:14.754Z,16.27
2022-12-17T17:17:16.350Z,16.70
2022-12-17T17:19:19.762Z,16.10
2022-12-17T17:21:31.130Z,17.87
2022-12-17T17:23:32.727Z,17.10
2022-12-17T17:25:57.416Z,17.00
2022-12-17T17:27:57.349Z,15.97
2022-12-17T17:30:03.272Z,16.63
2022-12-17T17:32:13.928Z,15.67
2022-12-17T17:34:15.980Z,15.40
2022-12-17T17:36:20.918Z,17.33
2022-12-17T17:38:22.527Z,17.23
2022-12-17T17:40:24.149Z,18.10
2022-12-17T17:42:25.790Z,18.23
2022-12-17T17:44:27.426Z,18.47
2022-12-17T17:46:30.107Z,18.60
2022-12-17T17:48:35.803Z,18.63
2022-12-17T17:50:37.678Z,18.60
2022-12-17T17:52:39.900Z,17.17
2022-12-17T17:54:41.983Z,17.60
2022-12-17T17:56:46.832Z,17.30
2022-12-17T17:58:51.329Z,16.63
2022-12-17T18:00:53.000Z,16.50
2022-12-17T18:02:54.972Z,17.07
2022-12-17T18:04:58.541Z,17.80
2022-12-17T18:09:30.235Z,17.17
2022-12-17T18:11:49.373Z,18.73
2022-12-17T18:13:57.221Z,18.80
2022-12-17T18:16:02.175Z,17.80
2022-12-17T18:18:05.531Z,20.27
2022-12-17T18:20:09.985Z,20.03
2022-12-17T18:22:11.613Z,20.13
2022-12-17T18:24:18.873Z,18.70
2022-12-17T18:26:23.100Z,19.53
2022-12-17T18:28:25.067Z,19.97
2022-12-17T18:30:26.707Z,20.57
2022-12-17T18:32:28.330Z,18.73
2022-12-17T18:34:29.869Z,19.20
2022-12-17T18:36:38.484Z,20.20
2022-12-17T18:38:40.550Z,19.63
2022-12-17T18:40:42.319Z,19.57
2022-12-17T18:43:03.637Z,20.73
2022-12-17T18:45:05.831Z,18.90
2022-12-17T18:47:08.739Z,19.63
2022-12-17T18:49:12.763Z,20.83
2022-12-17T18:51:14.500Z,19.80
2022-12-17T18:53:16.509Z,21.57
2022-12-17T18:55:18.513Z,21.03
2022-12-17T18:57:22.022Z,22.17
2022-12-17T18:59:29.004Z,20.77
2022-12-17T19:01:35.031Z,19.87
2022-12-17T19:03:36.639Z,19.70
2022-12-17T19:05:45.726Z,21.03
2022-12-17T19:07:48.206Z,20.40
2022-12-17T19:09:50.947Z,19.50
2022-12-17T19:11:53.770Z,20.90
2022-12-17T19:13:56.937Z,21.47
2022-12-17T19:16:06.519Z,20.63
2022-12-17T19:18:08.385Z,21.37
2022-12-17T19:20:10.315Z,21.33
2022-12-17T19:22:14.641Z,20.83
2022-12-17T19:24:17.620Z,20.67
2022-12-17T19:26:20.927Z,21.93
2022-12-17T19:28:22.962Z,19.83
2022-12-17T19:30:24.487Z,19.33
2022-12-17T19:32:25.987Z,20.33
2022-12-17T19:34:28.336Z,19.37
2022-12-17T19:36:31.747Z,20.67
2022-12-17T19:38:36.022Z,20.57
2022-12-17T19:40:38.027Z,21.23
2022-12-17T19:42:39.889Z,21.10
2022-12-17T19:44:51.476Z,20.37
2022-12-17T19:46:53.776Z,20.20
2022-12-17T19:48:57.371Z,19.87
2022-12-17T19:50:59.949Z,21.10
2022-12-17T19:53:01.701Z,20.73
2022-12-17T19:55:04.733Z,19.17
2022-12-17T19:57:06.313Z,21.43
2022-12-17T19:59:10.802Z,20.73
2022-12-17T20:01:17.940Z,21.87
2022-12-17T20:03:22.405Z,21.57
2022-12-17T20:05:24.138Z,21.80
2022-12-17T20:07:25.872Z,20.30
2022-12-17T20:09:27.718Z,20.30
2022-12-17T20:11:35.627Z,19.63
2022-12-17T20:13:37.466Z,21.07
2022-12-17T20:15:39.045Z,19.53
2022-12-17T20:17:40.670Z,18.50
2022-12-17T20:19:43.628Z,19.10
2022-12-17T20:21:46.178Z,19.73
2022-12-17T20:23:50.480Z,20.77
2022-12-17T20:26:05.656Z,20.57
2022-12-17T20:28:09.757Z,19.83
2022-12-17T20:30:14.934Z,21.00
2022-12-17T20:32:19.599Z,22.10
2022-12-17T20:34:21.716Z,21.30
2022-12-17T20:36:26.052Z,21.90
2022-12-17T20:38:27.802Z,22.77
2022-12-17T20:40:29.554Z,22.33
2022-12-17T20:42:31.357Z,23.13
2022-12-17T20:44:33.130Z,22.33
2022-12-17T20:46:36.770Z,23.03
2022-12-17T20:48:40.857Z,21.97
2022-12-17T20:50:46.288Z,21.57
2022-12-17T20:52:47.956Z,23.03
2022-12-17T20:54:49.666Z,23.00
2022-12-17T20:56:51.237Z,24.70
2022-12-17T20:59:05.363Z,24.53
2022-12-17T21:01:13.907Z,22.53
2022-12-17T21:03:15.720Z,25.10
2022-12-17T21:05:18.156Z,23.97
2022-12-17T21:07:27.505Z,23.83
2022-12-17T21:09:29.148Z,24.90
2022-12-17T21:11:34.235Z,23.83
2022-12-17T21:13:37.188Z,22.90
2022-12-17T21:15:39.127Z,22.87
2022-12-17T21:17:40.878Z,23.57
2022-12-17T21:19:45.746Z,23.23
2022-12-17T21:21:47.530Z,24.77
2022-12-17T21:23:49.854Z,25.73
2022-12-17T21:26:08.836Z,25.20
2022-12-17T21:28:12.179Z,26.47
2022-12-17T21:30:14.048Z,26.87
2022-12-17T21:32:18.647Z,27.50
2022-12-17T21:34:23.130Z,26.10
2022-12-17T21:36:26.486Z,27.20
2022-12-17T21:38:29.194Z,27.53
2022-12-17T21:40:30.848Z,25.10
2022-12-17T21:42:51.298Z,24.33
2022-12-17T21:44:52.911Z,21.10
2022-12-17T21:46:54.716Z,20.47
2022-12-17T21:48:58.810Z,20.13
2022-12-17T21:51:03.403Z,20.00
2022-12-17T21:53:09.098Z,19.27
2022-12-17T21:55:10.668Z,20.87
2022-12-17T21:57:12.751Z,20.33
2022-12-17T21:59:15.542Z,20.57
2022-12-17T22:01:27.011Z,20.73
2022-12-17T22:03:28.646Z,20.67
2022-12-17T22:05:30.313Z,21.90
2022-12-17T22:07:39.443Z,22.10
2022-12-17T22:10:25.732Z,20.57
2022-12-17T22:12:30.175Z,21.43
2022-12-17T22:14:31.632Z,21.03
2022-12-17T22:16:42.145Z,21.87
2022-12-17T22:18:47.120Z,21.43
2022-12-17T22:20:59.860Z,21.33
2022-12-17T22:23:01.738Z,22.50
2022-12-17T22:25:08.225Z,21.23
2022-12-17T22:27:13.251Z,21.67
2022-12-17T22:29:40.571Z,19.93
2022-12-17T22:32:03.232Z,21.43
2022-12-17T22:35:02.077Z,21.30
2022-12-17T22:39:15.766Z,21.43
2022-12-17T22:42:29.000Z,21.20
2022-12-17T22:44:48.774Z,22.10
2022-12-17T22:44:51.616Z,21.63
2022-12-17T22:46:29.954Z,20.97
2022-12-17T22:48:40.602Z,20.50
2022-12-17T22:50:55.198Z,21.50
2022-12-17T22:53:08.262Z,22.40
2022-12-17T22:55:13.163Z,23.53
2022-12-17T22:57:35.180Z,25.20
2022-12-17T22:59:37.202Z,23.47
2022-12-17T23:01:39.163Z,23.73
2022-12-17T23:03:41.278Z,22.30
2022-12-17T23:05:43.317Z,21.97
2022-12-17T23:07:47.766Z,21.93
2022-12-17T23:09:49.508Z,21.47
2022-12-17T23:11:51.153Z,21.27
2022-12-17T23:13:54.337Z,22.87
2022-12-17T23:15:56.942Z,21.37
2022-12-17T23:18:07.819Z,21.90
2022-12-17T23:20:11.087Z,21.63
2022-12-17T23:22:21.786Z,21.37
2022-12-17T23:24:23.783Z,19.40
2022-12-17T23:26:31.487Z,20.70
2022-12-17T23:28:33.074Z,18.57
2022-12-17T23:30:36.684Z,18.50
2022-12-17T23:32:38.578Z,19.40
2022-12-17T23:34:40.238Z,18.30
2022-12-17T23:36:41.969Z,17.03
2022-12-17T23:38:45.138Z,18.13
2022-12-17T23:40:46.851Z,17.93
2022-12-17T23:42:48.808Z,18.43
2022-12-17T23:44:50.520Z,18.57
2022-12-17T23:46:52.501Z,20.07
2022-12-17T23:48:54.436Z,22.33
2022-12-17T23:50:57.111Z,19.97
2022-12-17T23:52:58.842Z,20.40
2022-12-17T23:55:00.481Z,19.67
2022-12-17T23:57:02.200Z,20.50
2022-12-17T23:59:04.289Z,19.50
